createdAt,value
2023-10-22T05:58:26.309Z,6.41
2023-10-22T06:01:26.513Z,6.69
2023-10-22T06:04:26.409Z,5.48
2023-10-22T06:07:26.482Z,6.12
2023-10-22T06:10:26.440Z,4.75
2023-10-22T06:13:26.532Z,6.56
2023-10-22T06:16:26.273Z,5.47
2023-10-22T06:19:26.453Z,6.58
2023-10-22T06:22:26.285Z,5.17
2023-10-22T06:25:26.491Z,5.38
2023-10-22T06:28:26.234Z,5.21
2023-10-22T06:31:26.510Z,6.76
2023-10-22T06:34:26.466Z,5.55
2023-10-22T06:37:26.364Z,4.60
2023-10-22T06:40:26.299Z,6.22
2023-10-22T06:43:26.428Z,5.38
2023-10-22T06:46:26.266Z,6.09
2023-10-22T06:49:26.314Z,5.89
2023-10-22T06:52:29.106Z,6.09
2023-10-22T06:55:26.359Z,6.04
2023-10-22T06:58:26.334Z,5.73
2023-10-22T07:01:26.389Z,4.84
2023-10-22T07:04:26.364Z,5.45
2023-10-22T07:07:26.360Z,5.45
2023-10-22T07:10:26.311Z,6.23
2023-10-22T07:13:26.324Z,5.61
2023-10-22T07:16:26.624Z,5.25
2023-10-22T07:19:26.161Z,4.16
2023-10-22T07:22:26.558Z,4.04
2023-10-22T07:25:26.260Z,3.80
2023-10-22T07:28:26.380Z,5.13
2023-10-22T07:31:26.364Z,4.44
2023-10-22T07:34:26.534Z,6.12
2023-10-22T07:37:26.239Z,5.87
2023-10-22T07:40:26.484Z,4.53
2023-10-22T07:43:26.520Z,4.76
2023-10-22T07:46:26.522Z,4.47
2023-10-22T07:49:26.244Z,3.91
2023-10-22T07:52:26.446Z,4.68
2023-10-22T07:55:26.390Z,6.43
2023-10-22T07:58:26.479Z,7.49
2023-10-22T08:01:26.530Z,4.42
2023-10-22T08:04:26.614Z,5.88
2023-10-22T08:07:26.456Z,5.27
2023-10-22T08:10:26.457Z,6.55
2023-10-22T08:13:26.400Z,9.18
2023-10-22T08:16:26.680Z,11.64
2023-10-22T08:19:26.448Z,9.11
2023-10-22T08:22:26.676Z,9.13
2023-10-22T08:25:26.381Z,8.36
2023-10-22T08:28:26.540Z,8.38
2023-10-22T08:31:26.441Z,6.83
2023-10-22T08:34:26.401Z,11.79
2023-10-22T08:37:26.345Z,10.70
2023-10-22T08:40:26.572Z,11.13
2023-10-22T08:43:26.287Z,14.86
2023-10-22T08:46:26.524Z,12.68
2023-10-22T08:49:26.315Z,13.42
2023-10-22T08:52:26.536Z,15.63
2023-10-22T08:55:26.452Z,14.10
2023-10-22T08:58:26.582Z,12.76
2023-10-22T09:01:26.585Z,10.60
2023-10-22T09:04:26.555Z,11.12
2023-10-22T09:07:26.187Z,16.27
2023-10-22T09:10:26.474Z,14.28
2023-10-22T09:13:26.362Z,13.56
2023-10-22T09:16:26.405Z,11.68
2023-10-22T09:19:26.299Z,12.09
2023-10-22T09:22:26.434Z,12.89
2023-10-22T09:25:26.405Z,11.80
2023-10-22T09:28:26.582Z,12.09
2023-10-22T09:31:26.411Z,12.64
2023-10-22T09:34:26.433Z,9.34
2023-10-22T09:37:26.308Z,10.27
2023-10-22T09:40:26.438Z,8.85
2023-10-22T09:43:26.495Z,11.56
2023-10-22T09:46:26.628Z,10.56
2023-10-22T09:49:26.397Z,9.16
2023-10-22T09:52:26.537Z,14.76
2023-10-22T09:55:26.461Z,13.12
2023-10-22T09:58:26.461Z,17.64
2023-10-22T10:01:26.325Z,13.08
2023-10-22T10:04:26.466Z,12.50
2023-10-22T10:07:26.530Z,15.09
2023-10-22T10:10:26.441Z,12.88
2023-10-22T10:13:26.474Z,12.89
2023-10-22T10:16:26.393Z,11.26
2023-10-22T10:19:26.618Z,11.26
2023-10-22T10:22:26.542Z,15.20
2023-10-22T10:25:26.442Z,9.31
2023-10-22T10:28:26.567Z,12.44
2023-10-22T10:31:26.513Z,12.66
2023-10-22T10:34:26.631Z,10.32
2023-10-22T10:37:26.407Z,13.40
2023-10-22T10:40:28.978Z,10.61
2023-10-22T10:43:26.550Z,13.88
2023-10-22T10:46:26.550Z,12.68
2023-10-22T10:49:26.776Z,10.44
2023-10-22T10:52:26.511Z,7.60
2023-10-22T10:55:26.529Z,8.81
2023-10-22T10:58:26.544Z,7.57
2023-10-22T11:01:26.493Z,12.65
2023-10-22T11:04:26.796Z,14.06
2023-10-22T11:07:27.582Z,13.93
2023-10-22T11:10:26.483Z,14.16
2023-10-22T11:13:26.358Z,14.75
2023-10-22T11:16:26.627Z,14.37
2023-10-22T11:19:26.508Z,15.09
2023-10-22T11:22:26.432Z,11.84
2023-10-22T11:25:26.559Z,13.32
2023-10-22T11:28:26.463Z,12.28
2023-10-22T11:31:26.734Z,11.53
2023-10-22T11:34:26.497Z,16.66
2023-10-22T11:37:26.490Z,12.23
2023-10-22T11:40:26.355Z,13.20
2023-10-22T11:43:26.391Z,13.76
2023-10-22T11:46:26.580Z,11.03
2023-10-22T11:49:26.390Z,14.96
2023-10-22T11:52:26.563Z,13.17
2023-10-22T11:55:35.447Z,12.76
2023-10-22T11:58:26.633Z,10.30
2023-10-22T12:01:26.658Z,13.74
2023-10-22T12:04:26.518Z,12.65
2023-10-22T12:07:26.526Z,8.81
2023-10-22T12:10:28.716Z,10.73
2023-10-22T12:13:26.420Z,11.89
2023-10-22T12:16:26.511Z,14.25
2023-10-22T12:19:26.380Z,11.46
2023-10-22T12:22:26.628Z,12.38
2023-10-22T12:25:26.565Z,11.95
2023-10-22T12:28:26.732Z,13.04
2023-10-22T12:31:26.605Z,11.56
2023-10-22T12:34:26.495Z,12.76
2023-10-22T12:37:26.583Z,18.98
2023-10-22T12:40:26.537Z,15.16
2023-10-22T12:43:26.662Z,18.68
2023-10-22T12:46:26.748Z,11.57
2023-10-22T12:49:26.485Z,11.81
2023-10-22T12:52:26.614Z,14.02
2023-10-22T12:55:26.566Z,9.57
2023-10-22T12:58:26.789Z,12.88
2023-10-22T13:01:26.493Z,13.64
2023-10-22T13:04:26.632Z,14.60
2023-10-22T13:07:26.519Z,11.85
2023-10-22T13:10:26.610Z,11.42
2023-10-22T13:13:26.728Z,9.91
2023-10-22T13:16:26.664Z,11.10
2023-10-22T13:19:26.566Z,6.51
2023-10-22T13:22:26.579Z,9.63
2023-10-22T13:25:26.514Z,12.03
2023-10-22T13:28:26.623Z,10.85
2023-10-22T13:31:26.553Z,9.98
2023-10-22T13:34:26.554Z,10.22
2023-10-22T13:37:26.487Z,12.71
2023-10-22T13:40:26.446Z,10.35
2023-10-22T13:43:26.525Z,11.27
2023-10-22T13:46:26.546Z,11.91
2023-10-22T13:49:26.455Z,7.39
2023-10-22T13:52:26.599Z,12.65
2023-10-22T13:55:26.428Z,6.58
2023-10-22T13:58:26.621Z,10.81
2023-10-22T14:01:26.652Z,7.84
2023-10-22T14:04:26.856Z,6.61
2023-10-22T14:07:26.593Z,9.92
2023-10-22T14:10:26.428Z,8.06
2023-10-22T14:13:26.316Z,5.07
2023-10-22T14:16:26.677Z,4.60
2023-10-22T14:19:26.319Z,7.53
2023-10-22T14:22:26.408Z,8.17
2023-10-22T14:25:26.434Z,7.93
2023-10-22T14:28:26.466Z,7.69
2023-10-22T14:31:26.515Z,7.09
2023-10-22T14:34:27.644Z,8.47
2023-10-22T14:37:26.819Z,7.97
2023-10-22T14:40:28.708Z,7.90
2023-10-22T14:43:26.438Z,7.78
2023-10-22T14:46:26.659Z,7.66
2023-10-22T14:49:26.675Z,6.62
2023-10-22T14:52:26.688Z,6.99
2023-10-22T14:55:26.812Z,9.96
2023-10-22T14:58:26.550Z,7.86
2023-10-22T15:01:26.742Z,5.57
2023-10-22T15:04:26.646Z,7.71
2023-10-22T15:07:26.693Z,7.40
2023-10-22T15:10:26.918Z,6.85
2023-10-22T15:13:26.546Z,6.29
2023-10-22T15:16:26.681Z,8.06
2023-10-22T15:19:26.787Z,7.96
2023-10-22T15:22:26.890Z,5.29
2023-10-22T15:25:26.694Z,5.15
2023-10-22T15:28:26.729Z,5.42
2023-10-22T15:31:26.694Z,5.67
2023-10-22T15:34:26.694Z,6.51
2023-10-22T15:37:26.500Z,6.54
2023-10-22T15:40:26.706Z,5.23
2023-10-22T15:43:26.608Z,6.06
2023-10-22T15:46:26.695Z,6.75
2023-10-22T15:49:26.550Z,7.17
2023-10-22T15:52:26.764Z,8.11
2023-10-22T15:55:26.705Z,8.17
2023-10-22T15:58:26.612Z,7.27
2023-10-22T16:01:26.693Z,6.77
2023-10-22T16:04:26.592Z,6.78
2023-10-22T16:07:26.600Z,6.03
2023-10-22T16:10:26.878Z,6.80
2023-10-22T16:13:26.608Z,6.35
2023-10-22T16:16:27.029Z,7.32
2023-10-22T16:19:26.440Z,9.35
2023-10-22T16:22:26.807Z,7.76
2023-10-22T16:25:26.604Z,9.19
2023-10-22T16:28:26.705Z,9.70
2023-10-22T16:31:26.543Z,10.37
2023-10-22T16:34:26.563Z,7.99
2023-10-22T16:37:26.498Z,8.21
2023-10-22T16:40:26.620Z,9.26
2023-10-22T16:43:26.548Z,8.43
2023-10-22T16:46:26.483Z,7.87
2023-10-22T16:49:26.581Z,6.38
2023-10-22T16:52:26.464Z,6.26
2023-10-22T16:55:26.523Z,6.42
2023-10-22T16:58:26.626Z,6.14
2023-10-22T17:01:26.906Z,7.54
2023-10-22T17:04:26.723Z,6.83
2023-10-22T17:07:26.514Z,6.41
2023-10-22T17:10:26.665Z,5.92
2023-10-22T17:13:26.641Z,8.57
2023-10-22T17:16:26.882Z,6.66
2023-10-22T17:19:26.864Z,6.94
2023-10-22T17:22:26.579Z,7.14
2023-10-22T17:25:26.676Z,6.51
2023-10-22T17:28:26.628Z,6.63
2023-10-22T17:31:26.644Z,7.59
2023-10-22T17:34:27.002Z,7.21
2023-10-22T17:37:26.668Z,8.17
2023-10-22T17:40:26.690Z,7.55
2023-10-22T17:43:26.610Z,7.34
2023-10-22T17:46:26.854Z,8.03
2023-10-22T17:49:26.736Z,7.76
2023-10-22T17:52:26.757Z,8.74
2023-10-22T17:55:26.804Z,9.09
2023-10-22T17:58:26.710Z,7.53
2023-10-22T18:01:26.713Z,8.88
2023-10-22T18:04:26.883Z,9.75
2023-10-22T18:07:26.683Z,9.23
2023-10-22T18:10:26.780Z,6.97
2023-10-22T18:13:26.585Z,8.73
2023-10-22T18:16:26.766Z,10.23
2023-10-22T18:19:40.063Z,10.30
2023-10-22T18:22:26.759Z,9.04
2023-10-22T18:25:26.681Z,7.35
2023-10-22T18:28:26.797Z,9.97
2023-10-22T18:31:26.724Z,10.56
2023-10-22T18:34:26.734Z,11.45
2023-10-22T18:37:26.418Z,10.63
2023-10-22T18:40:26.778Z,9.09
2023-10-22T18:43:26.461Z,8.50
2023-10-22T18:46:26.681Z,6.37
2023-10-22T18:49:26.660Z,8.71
2023-10-22T18:52:26.569Z,6.31
2023-10-22T18:55:26.598Z,3.88
2023-10-22T18:58:26.518Z,4.71
2023-10-22T19:01:26.691Z,3.61
2023-10-22T19:04:26.784Z,4.64
2023-10-22T19:07:26.598Z,3.93
